Time;durP1;ratioP1;P1;durP2;ratioP2;P2;SDS_P1;SDS_P2;PMS_P1;PMS_P2;Temp;Humidity;BMP_temperature;BMP_pressure;BME280_temperature;BME280_humidity;BME280_pressure;Samples;Min_cycle;Max_cycle;Signal;HPM_P1;HPM_P2
2022/07/03 00:00:42;;;;;;;88.10;51.24;;;;;;;19.27;46.51;101056.59;458196;115;922942;-75
2022/07/03 00:01:46;;;;;;;93.17;52.50;;;;;;;19.25;46.44;101053.24;458297;115;922503;-75
2022/07/03 00:02:49;;;;;;;94.60;53.22;;;;;;;19.23;46.39;101055.45;458083;115;923169;-75
2022/07/03 00:03:53;;;;;;;87.96;53.48;;;;;;;19.21;46.42;101054.87;457120;116;930424;-75
2022/07/03 00:04:56;;;;;;;84.81;51.48;;;;;;;19.18;46.42;101048.75;457191;114;923416;-74
2022/07/03 00:05:59;;;;;;;89.61;50.66;;;;;;;19.15;46.46;101052.05;457264;116;922475;-74
2022/07/03 00:07:03;;;;;;;86.12;50.99;;;;;;;19.13;46.50;101056.19;465321;113;922590;-75
2022/07/03 00:08:06;;;;;;;83.12;48.84;;;;;;;19.11;46.53;101048.14;466405;113;922995;-74
2022/07/03 00:09:10;;;;;;;87.34;50.52;;;;;;;19.09;46.62;101049.48;466429;113;930465;-74
2022/07/03 00:10:13;;;;;;;88.05;50.75;;;;;;;19.06;46.75;101045.33;466382;113;922490;-74
2022/07/03 00:11:17;;;;;;;93.56;51.18;;;;;;;19.06;46.79;101050.02;466355;113;922568;-76
2022/07/03 00:12:20;;;;;;;79.20;49.74;;;;;;;19.04;46.83;101049.44;466478;113;922546;-74
2022/07/03 00:13:23;;;;;;;91.41;52.83;;;;;;;19.02;46.93;101046.92;466488;113;923050;-77
2022/07/03 00:14:27;;;;;;;90.55;51.09;;;;;;;19.01;46.85;101049.97;466476;113;922605;-74
2022/07/03 00:15:30;;;;;;;87.16;48.69;;;;;;;19.00;46.93;101045.53;466412;113;922485;-75
2022/07/03 00:16:33;;;;;;;88.84;48.36;;;;;;;19.00;46.99;101045.53;466435;113;922449;-76
2022/07/03 00:17:37;;;;;;;82.92;50.64;;;;;;;18.99;47.26;101046.61;466417;113;922557;-74
2022/07/03 00:18:41;;;;;;;87.42;50.14;;;;;;;18.99;47.23;101050.22;466464;113;923023;-73
2022/07/03 00:19:44;;;;;;;89.87;50.81;;;;;;;18.98;47.02;101043.02;466349;113;922491;-75
2022/07/03 00:20:50;;;;;;;91.17;50.41;;;;;;;18.97;46.98;101041.34;466313;113;931035;-74
2022/07/03 00:21:56;;;;;;;81.49;48.33;;;;;;;18.97;46.98;101046.86;466306;113;923060;-75
2022/07/03 00:23:02;;;;;;;85.49;49.51;;;;;;;18.96;46.98;101039.69;466273;113;922488;-75
2022/07/03 00:24:08;;;;;;;86.47;50.48;;;;;;;18.94;46.96;101041.03;466218;113;922453;-74
2022/07/03 00:25:13;;;;;;;86.36;48.54;;;;;;;18.93;47.00;101036.59;465742;113;922503;-75
2022/07/03 00:26:19;;;;;;;93.40;50.73;;;;;;;18.93;47.07;101039.35;466272;113;923233;-74
2022/07/03 00:27:25;;;;;;;84.48;49.71;;;;;;;18.93;47.20;101045.72;466309;113;922900;-76
2022/07/03 00:28:29;;;;;;;85.42;48.38;;;;;;;18.92;47.20;101035.75;466259;113;922747;-75
2022/07/03 00:29:39;;;;;;;80.88;47.65;;;;;;;18.93;47.15;101033.83;464094;113;922620;-74
2022/07/03 00:30:46;;;;;;;86.31;48.09;;;;;;;18.93;47.32;101044.88;453926;117;930832;-75
2022/07/03 00:31:49;;;;;;;89.48;48.08;;;;;;;18.92;47.47;101038.52;453957;117;922598;-73
2022/07/03 00:32:53;;;;;;;85.65;48.72;;;;;;;18.94;47.59;101041.03;454091;117;922624;-74
2022/07/03 00:33:59;;;;;;;89.21;47.53;;;;;;;18.95;47.52;101042.70;443895;118;922863;-75
2022/07/03 00:35:02;;;;;;;82.78;47.53;;;;;;;18.95;47.42;101045.47;449348;116;922552;-75
2022/07/03 00:36:07;;;;;;;85.35;49.01;;;;;;;18.95;47.30;101042.70;449428;117;922914;-74
2022/07/03 00:37:10;;;;;;;79.01;45.64;;;;;;;18.95;47.39;101049.07;449452;118;923122;-75
2022/07/03 00:38:13;;;;;;;77.97;47.61;;;;;;;18.94;47.26;101039.10;449616;118;922571;-74
2022/07/03 00:39:17;;;;;;;84.39;47.31;;;;;;;18.95;47.33;101039.94;449499;116;922961;-75
2022/07/03 00:40:22;;;;;;;80.76;47.71;;;;;;;18.95;47.48;101039.94;449324;118;923035;-76
2022/07/03 00:41:29;;;;;;;76.81;45.08;;;;;;;18.95;47.45;101042.70;449326;117;922528;-75
2022/07/03 00:42:36;;;;;;;77.72;45.08;;;;;;;18.95;47.43;101053.76;449250;118;930306;-75
2022/07/03 00:43:40;;;;;;;80.54;46.61;;;;;;;18.93;47.44;101040.19;449363;118;923089;-74
2022/07/03 00:44:51;;;;;;;87.56;46.72;;;;;;;18.93;47.45;101042.95;449589;116;922693;-74
2022/07/03 00:45:58;;;;;;;84.31;47.21;;;;;;;18.92;47.49;101043.20;449458;118;923062;-78
2022/07/03 00:47:05;;;;;;;77.07;45.65;;;;;;;18.92;47.54;101040.44;448345;117;922562;-75
2022/07/03 00:48:10;;;;;;;76.07;45.35;;;;;;;18.91;47.65;101041.56;449462;118;922412;-74
2022/07/03 00:49:16;;;;;;;79.07;45.81;;;;;;;18.90;47.74;101042.65;449467;116;922247;-74
2022/07/03 00:50:24;;;;;;;76.66;43.97;;;;;;;18.90;47.87;101039.89;449499;118;922897;-76
2022/07/03 00:51:29;;;;;;;71.75;41.21;;;;;;;18.90;48.02;101043.48;449502;118;922936;-75
2022/07/03 00:52:33;;;;;;;66.91;40.26;;;;;;;18.91;48.10;101041.56;449529;118;922638;-74
2022/07/03 00:53:38;;;;;;;70.70;39.91;;;;;;;18.93;48.16;101039.35;455694;116;922536;-73
2022/07/03 00:54:48;;;;;;;68.48;38.28;;;;;;;18.93;48.21;101042.12;457283;114;922921;-74
2022/07/03 00:56:00;;;;;;;55.74;33.79;;;;;;;19.04;48.26;101041.98;477171;110;946845;-76
2022/07/03 00:57:06;;;;;;;63.54;36.80;;;;;;;18.93;48.26;101040.19;465510;114;922458;-75
2022/07/03 00:58:09;;;;;;;61.84;36.16;;;;;;;18.93;48.31;101047.64;465486;114;922403;-74
2022/07/03 00:59:12;;;;;;;60.91;35.72;;;;;;;18.92;48.41;101043.20;463725;114;922376;-74
2022/07/03 01:00:18;;;;;;;55.51;34.09;;;;;;;18.90;48.46;101042.65;463015;114;923031;-75
2022/07/03 01:01:23;;;;;;;59.34;34.26;;;;;;;18.89;48.52;101046.50;463305;114;922532;-74
2022/07/03 01:02:33;;;;;;;50.71;34.12;;;;;;;18.88;48.64;101044.83;463110;114;930421;-73
2022/07/03 01:03:40;;;;;;;51.73;31.42;;;;;;;18.87;48.70;101043.15;463234;114;922396;-74
2022/07/03 01:05:11;;;;;;;54.37;32.11;;;;;;;18.86;48.86;101047.00;463555;114;922927;-74
2022/07/03 01:06:16;;;;;;;47.87;30.36;;;;;;;18.85;48.92;101045.36;464213;114;922076;-73
2022/07/03 01:07:25;;;;;;;47.06;29.69;;;;;;;18.82;49.03;101045.85;464219;114;922310;-74
2022/07/03 01:08:47;;;;;;;46.37;29.83;;;;;;;18.80;49.06;101043.34;464045;114;929911;-73
2022/07/03 01:10:02;;;;;;;44.82;27.50;;;;;;;18.75;49.02;101044.12;464114;114;922250;-76
2022/07/03 01:11:40;;;;;;;46.82;30.18;;;;;;;18.83;49.11;101045.61;489605;107;1203497;-72
2022/07/03 01:13:17;;;;;;;45.34;27.81;;;;;;;18.69;49.07;101047.07;485272;109;922187;-75
2022/07/03 01:14:41;;;;;;;42.11;28.00;;;;;;;18.62;49.12;101043.69;483991;109;922189;-74
2022/07/03 01:16:05;;;;;;;44.74;29.03;;;;;;;18.55;49.15;101049.39;476436;111;922704;-75
2022/07/03 01:17:12;;;;;;;46.90;28.23;;;;;;;18.49;49.27;101050.38;473472;111;922284;-74
2022/07/03 01:18:38;;;;;;;48.91;28.96;;;;;;;18.45;49.44;101051.99;475277;111;922246;-73
2022/07/03 01:19:44;;;;;;;46.44;27.71;;;;;;;18.42;49.51;101059.93;476541;111;922676;-74
2022/07/03 01:20:51;;;;;;;39.90;28.71;;;;;;;18.39;49.77;101061.30;476450;111;922251;-75
2022/07/03 01:22:14;;;;;;;51.19;28.41;;;;;;;18.36;49.72;101059.02;476536;111;922082;-73
2022/07/03 01:23:26;;;;;;;45.43;28.20;;;;;;;18.35;49.77;101065.66;476440;111;922784;-74
2022/07/03 01:24:48;;;;;;;46.57;27.36;;;;;;;18.33;49.82;101059.55;476357;111;922470;-73
2022/07/03 01:25:54;;;;;;;49.08;28.39;;;;;;;18.31;49.96;101059.80;475592;111;922219;-75
2022/07/03 01:27:07;;;;;;;47.41;28.07;;;;;;;18.30;50.06;101062.83;476504;111;922199;-74
2022/07/03 01:28:16;;;;;;;55.68;27.95;;;;;;;18.29;49.98;101066.67;476460;111;922755;-74
2022/07/03 01:29:32;;;;;;;45.33;28.22;;;;;;;18.27;50.05;101066.92;476473;111;922036;-74
2022/07/03 01:30:44;;;;;;;47.64;29.16;;;;;;;18.26;50.05;101065.24;474270;111;922100;-74
2022/07/03 01:31:49;;;;;;;47.35;27.89;;;;;;;18.24;50.13;101067.44;476463;111;922184;-73
2022/07/03 01:33:01;;;;;;;48.63;29.36;;;;;;;18.24;50.23;101063.84;476475;111;922901;-73
2022/07/03 01:34:08;;;;;;;49.31;28.28;;;;;;;18.23;50.27;101063.00;476463;111;922251;-74
2022/07/03 01:35:14;;;;;;;49.07;27.53;;;;;;;18.24;50.29;101066.60;476496;111;922071;-73
2022/07/03 01:36:21;;;;;;;50.16;27.64;;;;;;;18.24;50.40;101069.36;476511;111;922112;-73
2022/07/03 01:37:27;;;;;;;46.29;27.79;;;;;;;18.24;50.46;101064.68;466909;114;922255;-74
2022/07/03 01:38:34;;;;;;;50.35;28.46;;;;;;;18.24;50.58;101072.96;467689;111;922345;-74
2022/07/03 01:39:41;;;;;;;46.92;27.44;;;;;;;18.25;50.58;101071.01;475338;111;922150;-74
2022/07/03 01:40:48;;;;;;;43.62;27.45;;;;;;;18.25;50.55;101071.01;474286;111;922196;-75
2022/07/03 01:41:55;;;;;;;44.33;27.83;;;;;;;18.24;50.57;101067.44;476443;111;922939;-74
2022/07/03 01:43:02;;;;;;;51.95;27.27;;;;;;;18.25;50.76;101073.77;476410;111;922062;-74
2022/07/03 01:44:06;;;;;;;53.06;29.96;;;;;;;18.26;51.03;101067.16;476365;111;922816;-74
2022/07/03 01:45:12;;;;;;;46.89;27.96;;;;;;;18.27;50.71;101068.84;476575;111;922139;-73
2022/07/03 01:46:18;;;;;;;44.99;28.49;;;;;;;18.27;50.61;101063.32;475971;111;922393;-74
2022/07/03 01:47:24;;;;;;;46.81;28.72;;;;;;;18.27;50.63;101071.60;476421;111;922390;-74
2022/07/03 01:48:31;;;;;;;45.35;28.44;;;;;;;18.27;50.64;101066.92;476184;111;930041;-74
2022/07/03 01:49:35;;;;;;;43.25;26.32;;;;;;;18.27;50.77;101063.32;476412;111;922141;-74
2022/07/03 01:50:40;;;;;;;42.99;25.80;;;;;;;18.28;50.94;101065.00;476233;111;922419;-75
2022/07/03 01:51:46;;;;;;;40.21;26.34;;;;;;;18.29;51.07;101066.67;475428;111;922468;-73
2022/07/03 01:52:51;;;;;;;46.87;27.54;;;;;;;18.31;51.17;101075.52;475483;111;923078;-73
2022/07/03 01:53:54;;;;;;;43.42;28.14;;;;;;;18.32;51.21;101072.52;475534;111;922900;-74
2022/07/03 01:55:01;;;;;;;42.09;26.57;;;;;;;18.33;51.24;101076.11;475585;111;922588;-75
2022/07/03 01:56:07;;;;;;;51.54;26.66;;;;;;;18.34;51.21;101077.78;475461;111;922750;-74
2022/07/03 01:57:11;;;;;;;44.21;27.26;;;;;;;18.33;51.11;101067.83;475552;111;922541;-76
2022/07/03 01:58:14;;;;;;;44.17;25.41;;;;;;;18.33;51.00;101082.47;475710;111;922412;-74
2022/07/03 01:59:17;;;;;;;37.67;24.77;;;;;;;18.33;50.99;101076.95;475632;111;923436;-74
2022/07/03 02:00:23;;;;;;;44.27;27.83;;;;;;;18.32;51.11;101072.52;475003;111;923002;-75
2022/07/03 02:01:35;;;;;;;37.46;25.34;;;;;;;18.33;51.31;101079.70;475597;111;922515;-74
2022/07/03 02:02:59;;;;;;;37.29;25.66;;;;;;;18.48;51.33;101076.32;482550;110;947757;-75
2022/07/03 02:04:37;;;;;;;44.79;26.54;;;;;;;18.37;51.34;101082.78;473914;112;922992;-74
2022/07/03 02:05:45;;;;;;;36.74;24.92;;;;;;;18.38;51.40;101080.87;465206;114;923060;-73
2022/07/03 02:06:59;;;;;;;41.38;25.60;;;;;;;18.38;51.23;101087.22;465569;114;922562;-75
2022/07/03 02:08:09;;;;;;;39.46;25.38;;;;;;;18.38;51.17;101086.39;460094;114;922549;-74
2022/07/03 02:09:13;;;;;;;49.57;26.72;;;;;;;18.36;51.18;101097.67;465714;112;922591;-74
2022/07/03 02:10:23;;;;;;;50.49;27.26;;;;;;;18.33;51.16;101090.75;462338;114;922431;-75
2022/07/03 02:11:28;;;;;;;54.07;27.93;;;;;;;18.32;50.94;101082.72;465050;114;922659;-75
2022/07/03 02:12:41;;;;;;;49.76;26.87;;;;;;;18.31;50.75;101087.40;465545;114;922542;-75
2022/07/03 02:14:12;;;;;;;47.59;26.18;;;;;;;18.31;50.71;101086.56;465572;114;922548;-75
2022/07/03 02:15:19;;;;;;;34.85;23.41;;;;;;;18.30;50.76;101080.20;465539;114;922618;-75
2022/07/03 02:16:24;;;;;;;41.24;26.13;;;;;;;18.31;51.10;101083.80;465447;114;922655;-75
2022/07/03 02:17:33;;;;;;;40.27;25.65;;;;;;;18.32;51.23;101082.72;465422;114;922838;-74
2022/07/03 02:18:37;;;;;;;40.88;25.47;;;;;;;18.34;51.27;101077.78;465316;114;922987;-75
2022/07/03 02:20:01;;;;;;;33.83;22.80;;;;;;;18.37;51.18;101087.47;465572;114;923055;-75
2022/07/03 02:21:17;;;;;;;32.27;23.71;;;;;;;18.37;50.95;101081.95;465490;114;922938;-75
2022/07/03 02:22:24;;;;;;;33.84;21.69;;;;;;;18.35;50.86;101087.75;465406;114;922634;-73
2022/07/03 02:23:32;;;;;;;38.54;24.19;;;;;;;18.31;50.81;101086.56;465044;114;922587;-75
2022/07/03 02:24:46;;;;;;;33.44;23.24;;;;;;;18.30;50.93;101087.67;464539;114;922584;-74
2022/07/03 02:25:53;;;;;;;34.93;24.02;;;;;;;18.28;50.91;101087.92;465481;114;923056;-74
2022/07/03 02:27:05;;;;;;;40.88;24.98;;;;;;;18.27;50.80;101086.24;465461;114;922932;-74
2022/07/03 02:28:32;;;;;;;33.03;23.01;;;;;;;18.25;50.78;101093.93;465505;114;922504;-75
2022/07/03 02:29:45;;;;;;;35.11;23.26;;;;;;;18.23;50.84;101085.09;465162;114;922506;-75
2022/07/03 02:30:51;;;;;;;37.12;24.00;;;;;;;18.21;51.03;101090.02;465435;114;922607;-74
2022/07/03 02:32:01;;;;;;;34.59;24.16;;;;;;;18.20;50.95;101082.81;465438;114;922921;-74
2022/07/03 02:33:06;;;;;;;34.48;23.22;;;;;;;18.20;51.02;101087.49;465776;114;922945;-74
2022/07/03 02:34:13;;;;;;;32.41;22.41;;;;;;;18.21;51.12;101087.25;463542;112;922419;-75
2022/07/03 02:35:34;;;;;;;35.54;22.67;;;;;;;18.21;51.22;101081.73;461898;114;923320;-75
2022/07/03 02:36:39;;;;;;;34.07;22.03;;;;;;;18.22;51.31;101082.57;462021;114;922894;-75
2022/07/03 02:37:49;;;;;;;33.31;21.62;;;;;;;18.23;51.44;101079.56;462091;114;930892;-75
2022/07/03 02:38:56;;;;;;;29.58;20.90;;;;;;;18.25;51.40;101076.53;462109;114;922602;-75
2022/07/03 02:40:11;;;;;;;33.74;21.47;;;;;;;18.25;51.18;101082.05;462181;114;922485;-75
2022/07/03 02:41:30;;;;;;;33.33;21.64;;;;;;;18.25;51.11;101079.29;461618;114;923082;-75
2022/07/03 02:42:37;;;;;;;32.76;22.37;;;;;;;18.23;51.11;101074.05;461438;114;923031;-73
2022/07/03 02:43:59;;;;;;;29.47;21.27;;;;;;;18.23;51.30;101075.97;461319;114;922774;-74
2022/07/03 02:45:05;;;;;;;32.63;21.42;;;;;;;18.23;51.38;101074.05;462140;114;922483;-75
2022/07/03 02:46:50;;;;;;;35.95;22.19;;;;;;;18.23;51.35;101076.80;464463;114;922573;-75
2022/07/03 02:48:18;;;;;;;30.78;20.64;;;;;;;18.23;51.32;101073.20;465300;114;922532;-73
2022/07/03 02:49:37;;;;;;;35.83;21.83;;;;;;;18.22;51.56;101077.05;464922;114;922621;-73
2022/07/03 02:50:44;;;;;;;28.78;21.74;;;;;;;18.21;51.65;101078.13;465387;114;922518;-74
2022/07/03 02:51:57;;;;;;;28.81;22.14;;;;;;;18.19;51.73;101083.90;465401;114;922569;-74
2022/07/03 02:53:05;;;;;;;37.14;22.86;;;;;;;18.18;51.79;101075.89;465309;114;923111;-74
2022/07/03 02:54:17;;;;;;;28.72;21.42;;;;;;;18.17;51.76;101075.05;465718;114;922503;-74
2022/07/03 02:55:36;;;;;;;36.48;21.69;;;;;;;18.18;51.89;101076.73;465363;114;922817;-74
2022/07/03 02:57:06;;;;;;;28.45;21.91;;;;;;;18.20;52.04;101074.53;465094;114;922484;-75
2022/07/03 02:58:28;;;;;;;27.83;20.74;;;;;;;18.23;52.20;101079.56;465365;114;922489;-75
2022/07/03 02:59:54;;;;;;;29.28;21.01;;;;;;;18.26;52.25;101083.73;465372;114;923007;-75
2022/07/03 03:01:30;;;;;;;31.50;21.59;;;;;;;18.28;52.29;101076.88;465375;114;923081;-75
2022/07/03 03:02:57;;;;;;;32.76;22.72;;;;;;;18.44;52.23;101079.85;488474;107;1203993;-75
2022/07/03 03:04:14;;;;;;;31.66;21.34;;;;;;;18.33;52.15;101079.70;484246;109;922583;-75
2022/07/03 03:05:30;;;;;;;30.85;21.03;;;;;;;18.37;52.10;101077.27;474472;111;922928;-74
2022/07/03 03:06:35;;;;;;;30.87;21.68;;;;;;;18.39;52.11;101079.78;474787;111;923027;-75
2022/07/03 03:08:06;;;;;;;23.57;20.26;;;;;;;18.39;52.06;101079.78;475271;111;923090;-74
2022/07/03 03:09:13;;;;;;;33.40;20.46;;;;;;;18.38;52.06;101081.70;475301;111;923015;-74
2022/07/03 03:10:20;;;;;;;26.08;20.26;;;;;;;18.37;52.11;101079.19;475283;111;922849;-75
2022/07/03 03:11:44;;;;;;;30.07;20.87;;;;;;;18.36;52.23;101078.35;475360;111;923038;-74
2022/07/03 03:12:51;;;;;;;28.69;21.57;;;;;;;18.36;52.30;101078.35;475235;111;930276;-74
2022/07/03 03:13:57;;;;;;;29.79;20.60;;;;;;;18.38;52.46;101078.94;474294;111;922452;-76
2022/07/03 03:15:02;;;;;;;31.99;20.13;;;;;;;18.39;52.52;101086.14;475315;111;922453;-74
2022/07/03 03:16:09;;;;;;;30.20;21.19;;;;;;;18.40;52.51;101082.30;475337;111;922562;-75
2022/07/03 03:17:21;;;;;;;29.42;20.72;;;;;;;18.41;52.51;101080.38;475297;111;922869;-73
2022/07/03 03:18:27;;;;;;;32.17;21.76;;;;;;;18.42;52.50;101084.78;475299;111;922613;-75
2022/07/03 03:19:34;;;;;;;30.12;21.75;;;;;;;18.42;52.53;101082.86;475308;111;922615;-74
2022/07/03 03:20:40;;;;;;;29.21;19.87;;;;;;;18.43;52.62;101080.94;475280;111;922865;-74
2022/07/03 03:21:47;;;;;;;30.22;20.51;;;;;;;18.44;52.65;101086.21;475245;111;922995;-74
2022/07/03 03:23:18;;;;;;;34.94;21.29;;;;;;;18.46;52.65;101085.97;474334;111;922629;-74
2022/07/03 03:24:22;;;;;;;;;;;;;;;18.47;52.68;101084.88;479069;111;921964;-75
2022/07/03 03:25:26;;;;;;;30.16;19.74;;;;;;;18.48;52.72;101084.60;475392;111;922552;-74
2022/07/03 03:26:32;;;;;;;39.62;20.85;;;;;;;18.48;52.79;101090.13;474879;111;930283;-74
2022/07/03 03:27:35;;;;;;;32.23;20.59;;;;;;;18.50;52.91;101084.36;475324;111;922458;-73
2022/07/03 03:28:40;;;;;;;34.64;19.99;;;;;;;18.53;52.95;101092.12;475475;111;930411;-74
2022/07/03 03:29:44;;;;;;;39.43;20.77;;;;;;;18.55;52.98;101090.82;472120;111;922836;-74
2022/07/03 03:30:49;;;;;;;43.18;21.75;;;;;;;18.57;52.95;101088.66;466962;113;922612;-74
2022/07/03 03:31:53;;;;;;;41.17;21.56;;;;;;;18.60;52.92;101092.81;466843;113;922937;-75
2022/07/03 03:32:56;;;;;;;35.59;21.16;;;;;;;18.61;52.60;101092.56;466935;113;922664;-74
2022/07/03 03:34:00;;;;;;;43.99;20.86;;;;;;;18.63;52.62;101089.55;466946;113;930614;-74
2022/07/03 03:35:04;;;;;;;50.45;21.54;;;;;;;18.65;52.52;101087.35;466959;113;922445;-74
2022/07/03 03:36:11;;;;;;;47.03;20.26;;;;;;;18.66;52.44;101087.11;466846;113;923047;-74
2022/07/03 03:37:15;;;;;;;42.78;21.51;;;;;;;18.70;52.38;101087.42;466788;113;922991;-74
2022/07/03 03:38:18;;;;;;;34.61;21.37;;;;;;;18.71;52.32;101083.57;466910;113;922499;-74
2022/07/03 03:39:22;;;;;;;33.91;20.26;;;;;;;18.73;52.19;101079.48;466959;113;922460;-75
2022/07/03 03:40:27;;;;;;;39.47;20.90;;;;;;;18.75;52.18;101082.80;466330;113;922864;-74
2022/07/03 03:41:31;;;;;;;42.69;20.92;;;;;;;18.77;52.16;101077.02;466966;113;923560;-75
2022/07/03 03:42:34;;;;;;;52.08;21.52;;;;;;;18.80;52.23;101075.69;467836;113;923108;-73
2022/07/03 03:43:38;;;;;;;48.56;21.18;;;;;;;18.82;52.15;101079.01;467832;113;930067;-74
2022/07/03 03:44:41;;;;;;;36.25;19.06;;;;;;;18.84;52.09;101074.08;467817;113;930634;-75
2022/07/03 03:45:45;;;;;;;41.64;20.29;;;;;;;18.83;52.10;101073.23;468022;113;923090;-75
2022/07/03 03:46:50;;;;;;;44.29;20.16;;;;;;;18.84;52.17;101071.31;467927;113;922558;-76
2022/07/03 03:47:54;;;;;;;49.64;20.08;;;;;;;18.85;52.20;101073.83;467613;113;922562;-74
2022/07/03 03:48:58;;;;;;;50.71;21.64;;;;;;;18.87;52.22;101070.78;466906;113;922495;-75
2022/07/03 03:50:02;;;;;;;45.34;21.49;;;;;;;18.89;52.29;101071.37;466849;113;922396;-75
2022/07/03 03:51:07;;;;;;;37.31;20.95;;;;;;;18.89;52.28;101066.68;466754;113;930594;-74
2022/07/03 03:52:11;;;;;;;41.54;19.57;;;;;;;18.92;52.30;101071.68;466834;113;922796;-74
2022/07/03 03:53:15;;;;;;;44.25;21.80;;;;;;;18.94;52.41;101071.43;466984;113;922566;-76
2022/07/03 03:54:18;;;;;;;47.70;20.41;;;;;;;18.96;52.43;101061.80;466919;113;922528;-75
2022/07/03 03:55:22;;;;;;;44.31;20.92;;;;;;;18.98;52.33;101067.05;466991;113;922578;-75
2022/07/03 03:56:27;;;;;;;44.98;19.88;;;;;;;19.01;52.43;101072.08;466853;113;922447;-75
2022/07/03 03:57:30;;;;;;;51.52;19.71;;;;;;;19.02;52.45;101074.55;466938;113;923119;-77
2022/07/03 03:58:36;;;;;;;39.09;19.59;;;;;;;19.06;52.46;101066.60;466926;113;922595;-74
2022/07/03 03:59:39;;;;;;;44.05;20.63;;;;;;;19.09;52.51;101063.30;466757;113;922818;-74
2022/07/03 04:00:43;;;;;;;42.06;20.17;;;;;;;19.12;52.56;101063.64;466905;113;922554;-75
2022/07/03 04:01:47;;;;;;;39.44;19.56;;;;;;;19.15;52.55;101062.27;466961;113;930574;-74
2022/07/03 04:02:50;;;;;;;47.59;19.97;;;;;;;19.18;52.58;101059.81;464728;113;922953;-76
2022/07/03 04:03:54;;;;;;;38.84;19.85;;;;;;;19.23;52.74;101060.98;464300;114;922559;-74
2022/07/03 04:04:57;;;;;;;47.27;20.77;;;;;;;19.26;52.76;101060.45;464179;114;922832;-75
2022/07/03 04:06:01;;;;;;;45.51;21.04;;;;;;;19.29;52.60;101060.78;464245;114;930458;-74
2022/07/03 04:07:04;;;;;;;45.77;20.25;;;;;;;19.33;52.61;101061.08;471596;112;922471;-75
2022/07/03 04:08:08;;;;;;;46.12;19.87;;;;;;;19.37;52.53;101059.45;472458;112;923080;-75
2022/07/03 04:09:11;;;;;;;42.27;19.02;;;;;;;19.39;52.58;101060.05;472449;112;922499;-77
2022/07/03 04:10:15;;;;;;;48.34;19.69;;;;;;;19.42;52.58;101060.34;472420;112;930421;-76
2022/07/03 04:11:19;;;;;;;44.29;19.85;;;;;;;19.44;52.48;101041.56;472462;112;930516;-76
2022/07/03 04:12:22;;;;;;;37.38;19.60;;;;;;;19.47;52.48;101052.12;472416;112;923106;-75
2022/07/03 04:13:25;;;;;;;45.95;19.54;;;;;;;19.50;52.54;101046.09;472421;112;930507;-76
2022/07/03 04:14:29;;;;;;;47.27;19.66;;;;;;;19.55;52.62;101050.83;472425;112;923102;-76
2022/07/03 04:15:32;;;;;;;43.16;20.76;;;;;;;19.58;52.63;101042.82;472495;112;922536;-75
2022/07/03 04:16:35;;;;;;;38.20;19.63;;;;;;;19.61;52.62;101049.77;472314;112;922978;-75
2022/07/03 04:17:39;;;;;;;52.19;20.02;;;;;;;19.64;52.56;101049.23;472323;112;930697;-73
2022/07/03 04:18:42;;;;;;;44.14;19.76;;;;;;;19.68;52.48;101046.80;472455;112;922912;-75
2022/07/03 04:19:46;;;;;;;37.17;19.52;;;;;;;19.71;52.44;101052.62;472426;112;922463;-74
2022/07/03 04:20:50;;;;;;;38.75;19.86;;;;;;;19.74;52.43;101049.31;472371;112;923142;-75
2022/07/03 04:21:53;;;;;;;41.77;19.13;;;;;;;19.76;52.35;101049.89;472364;112;922602;-74
2022/07/03 04:22:57;;;;;;;38.79;19.06;;;;;;;19.80;52.28;101047.42;472484;112;922970;-74
2022/07/03 04:24:00;;;;;;;35.32;18.78;;;;;;;19.82;52.21;101051.61;472401;112;922436;-75
2022/07/03 04:25:04;;;;;;;40.04;19.25;;;;;;;19.85;52.12;101050.23;472358;112;922453;-74
2022/07/03 04:26:08;;;;;;;36.99;17.35;;;;;;;19.86;52.12;101049.14;472379;112;922525;-77
2022/07/03 04:27:13;;;;;;;47.00;19.73;;;;;;;19.88;52.15;101049.72;471522;112;922489;-74
2022/07/03 04:28:16;;;;;;;42.39;19.06;;;;;;;19.88;52.07;101050.55;472314;112;922755;-75
2022/07/03 04:29:22;;;;;;;31.27;17.98;;;;;;;19.89;51.98;101051.39;471847;112;922831;-75
2022/07/03 04:30:26;;;;;;;39.16;19.18;;;;;;;19.90;51.92;101050.30;470534;112;922535;-75
2022/07/03 04:31:30;;;;;;;48.60;19.23;;;;;;;19.90;51.93;101044.77;472358;112;930533;-76
2022/07/03 04:32:33;;;;;;;40.19;19.02;;;;;;;19.94;51.99;101051.43;472302;112;923046;-75
2022/07/03 04:33:36;;;;;;;35.66;18.34;;;;;;;19.94;51.93;101046.73;471945;112;922356;-74
2022/07/03 04:34:40;;;;;;;30.59;17.93;;;;;;;19.97;51.88;101045.34;464143;114;922979;-75
2022/07/03 04:35:43;;;;;;;38.83;18.05;;;;;;;20.00;51.81;101050.37;464201;114;922516;-75
2022/07/03 04:36:46;;;;;;;28.41;16.96;;;;;;;20.03;51.78;101048.98;464079;114;922479;-75
2022/07/03 04:37:50;;;;;;;31.72;17.75;;;;;;;20.04;51.72;101051.50;464035;114;923001;-75
2022/07/03 04:38:53;;;;;;;30.18;17.54;;;;;;;20.06;51.60;101046.55;464134;114;922511;-76
2022/07/03 04:39:56;;;;;;;33.69;17.95;;;;;;;20.10;51.44;101038.52;464131;114;922887;-76
2022/07/03 04:41:00;;;;;;;31.50;17.77;;;;;;;20.11;51.43;101041.03;464110;114;922977;-75
2022/07/03 04:42:04;;;;;;;36.16;17.54;;;;;;;20.14;51.34;101040.48;464025;114;930301;-75
2022/07/03 04:43:07;;;;;;;33.03;17.44;;;;;;;20.18;51.29;101044.38;464050;114;922773;-75
2022/07/03 04:44:11;;;;;;;30.91;17.62;;;;;;;20.21;51.23;101043.03;464241;114;923055;-74
2022/07/03 04:45:14;;;;;;;34.92;16.97;;;;;;;20.25;51.15;101030.31;464159;114;922535;-75
2022/07/03 04:46:18;;;;;;;34.94;17.95;;;;;;;20.28;51.12;101036.16;464107;114;922952;-75
2022/07/03 04:47:22;;;;;;;30.54;18.66;;;;;;;20.31;51.01;101035.64;464059;114;922494;-75
2022/07/03 04:48:29;;;;;;;34.33;17.30;;;;;;;20.33;50.83;101038.16;464095;114;930442;-75
2022/07/03 04:49:39;;;;;;;31.31;17.81;;;;;;;20.45;50.59;101043.48;470445;110;947197;-72
2022/07/03 04:50:43;;;;;;;28.18;17.51;;;;;;;20.35;50.56;101047.01;457416;116;922453;-76
2022/07/03 04:51:46;;;;;;;28.11;17.85;;;;;;;20.37;50.48;101036.51;457417;116;922496;-75
2022/07/03 04:52:50;;;;;;;29.31;18.81;;;;;;;20.38;50.49;101043.72;457435;116;922988;-74
2022/07/03 04:53:54;;;;;;;23.19;17.31;;;;;;;20.41;49.83;101034.86;457467;116;922532;-74
2022/07/03 04:54:57;;;;;;;21.75;17.01;;;;;;;20.43;49.30;101035.44;457303;114;922489;-75
2022/07/03 04:56:00;;;;;;;24.20;17.49;;;;;;;20.45;48.81;101036.02;457326;116;922475;-75
2022/07/03 04:57:04;;;;;;;25.22;18.34;;;;;;;20.48;48.44;101035.45;457456;116;922498;-76
2022/07/03 04:58:08;;;;;;;25.93;17.50;;;;;;;20.52;48.23;101038.52;457436;116;922554;-76
2022/07/03 04:59:11;;;;;;;20.71;18.60;;;;;;;20.54;47.86;101037.16;457386;116;923363;-74
2022/07/03 05:00:16;;;;;;;28.13;18.79;;;;;;;20.57;47.71;101038.53;457245;116;923007;-75
2022/07/03 05:01:20;;;;;;;25.08;18.90;;;;;;;20.60;47.60;101035.24;457398;116;922635;-74
2022/07/03 05:02:23;;;;;;;20.77;18.66;;;;;;;20.64;47.30;101039.13;457379;116;922478;-74
2022/07/03 05:03:27;;;;;;;19.94;17.39;;;;;;;20.67;47.09;101033.06;457433;116;922559;-74
2022/07/03 05:04:30;;;;;;;25.64;19.29;;;;;;;20.71;46.71;101035.02;457334;114;925645;-75
2022/07/03 05:05:34;;;;;;;24.85;19.31;;;;;;;20.74;46.61;101036.40;457380;116;930363;-74